createdAt,value
2023-04-22T00:00:29.220Z,83.20
2023-04-22T00:02:57.464Z,83.50
2023-04-22T00:05:26.638Z,83.30
2023-04-22T00:07:54.843Z,83.30
2023-04-22T00:10:23.640Z,83.40
2023-04-22T00:12:51.759Z,83.50
2023-04-22T00:15:22.507Z,83.80
2023-04-22T00:17:51.938Z,84.10
2023-04-22T00:20:22.185Z,84.10
2023-04-22T00:22:50.215Z,84.20
2023-04-22T00:25:19.239Z,84.40
2023-04-22T00:27:47.324Z,84.40
2023-04-22T00:30:16.573Z,84.50
2023-04-22T00:32:44.647Z,84.40
2023-04-22T00:35:14.528Z,84.60
2023-04-22T00:37:42.602Z,85.00
2023-04-22T00:40:11.693Z,85.10
2023-04-22T00:42:40.137Z,84.90
2023-04-22T00:45:11.561Z,84.80
2023-04-22T00:47:39.621Z,84.90
2023-04-22T00:50:09.157Z,84.90
2023-04-22T00:52:38.503Z,84.80
2023-04-22T00:55:07.650Z,84.90
2023-04-22T00:57:36.769Z,84.90
2023-04-22T01:00:05.940Z,85.20
2023-04-22T01:02:34.722Z,85.40
2023-04-22T01:05:03.537Z,85.50
2023-04-22T01:07:31.878Z,85.40
2023-04-22T01:10:01.527Z,85.30
2023-04-22T01:12:30.099Z,85.50
2023-04-22T01:14:58.173Z,85.60
2023-04-22T01:17:26.307Z,85.70
2023-04-22T01:19:55.702Z,85.70
2023-04-22T01:22:24.051Z,85.80
2023-04-22T01:24:53.431Z,85.80
2023-04-22T01:27:22.040Z,85.50
2023-04-22T01:29:50.026Z,85.90
2023-04-22T01:32:18.471Z,85.90
2023-04-22T01:34:46.832Z,85.90
2023-04-22T01:37:15.588Z,85.90
2023-04-22T01:39:43.577Z,86.00
2023-04-22T01:42:13.316Z,86.30
2023-04-22T01:44:41.857Z,86.10
2023-04-22T01:47:10.308Z,86.10
2023-04-22T01:49:39.038Z,86.10
2023-04-22T01:52:07.548Z,86.00
2023-04-22T01:54:36.206Z,86.00
2023-04-22T01:57:10.035Z,86.00
2023-04-22T01:59:40.388Z,85.80
2023-04-22T02:02:09.247Z,85.80
2023-04-22T02:04:37.813Z,86.00
2023-04-22T02:07:07.148Z,86.10
2023-04-22T02:09:38.762Z,86.20
2023-04-22T02:12:07.845Z,86.20
2023-04-22T02:14:36.239Z,86.30
2023-04-22T02:17:05.961Z,86.20
2023-04-22T02:19:34.435Z,86.30
2023-04-22T02:22:02.923Z,86.60
2023-04-22T02:24:31.498Z,86.40
2023-04-22T02:27:00.309Z,86.60
2023-04-22T02:29:29.448Z,86.40
2023-04-22T02:31:59.381Z,86.60
2023-04-22T02:34:29.088Z,86.70
2023-04-22T02:36:57.065Z,86.80
2023-04-22T02:39:26.254Z,86.60
2023-04-22T02:41:54.656Z,86.40
2023-04-22T02:44:22.835Z,86.70
2023-04-22T02:46:50.940Z,86.90
2023-04-22T02:49:19.370Z,86.50
2023-04-22T02:51:48.764Z,86.60
2023-04-22T02:54:17.184Z,86.90
2023-04-22T02:56:46.049Z,86.90
2023-04-22T02:59:14.362Z,87.20
2023-04-22T03:01:42.421Z,87.20
2023-04-22T03:04:16.420Z,87.00
2023-04-22T03:06:45.096Z,87.30
2023-04-22T03:09:14.819Z,87.40
2023-04-22T03:11:42.840Z,87.40
2023-04-22T03:14:11.443Z,87.40
2023-04-22T03:16:40.274Z,87.10
2023-04-22T03:19:08.747Z,87.00
2023-04-22T03:21:36.717Z,87.30
2023-04-22T03:24:05.996Z,87.30
2023-04-22T03:26:37.038Z,87.20
2023-04-22T03:29:05.401Z,87.20
2023-04-22T03:31:33.565Z,88.00
2023-04-22T03:34:02.354Z,87.60
2023-04-22T03:36:32.415Z,87.70
2023-04-22T03:39:00.981Z,87.50
2023-04-22T03:41:31.229Z,87.60
2023-04-22T03:44:02.092Z,87.60
2023-04-22T03:46:31.582Z,87.70
2023-04-22T03:49:17.058Z,87.50
2023-04-22T03:51:45.701Z,87.50
2023-04-22T03:54:18.708Z,87.50
2023-04-22T03:56:50.891Z,87.60
2023-04-22T03:59:23.310Z,87.70
2023-04-22T04:01:52.448Z,87.80
2023-04-22T04:04:24.667Z,88.00
2023-04-22T04:06:58.012Z,88.20
2023-04-22T04:09:28.194Z,88.10
2023-04-22T04:11:56.710Z,88.00
2023-04-22T04:14:26.494Z,88.10
2023-04-22T04:16:54.957Z,88.00
2023-04-22T04:19:32.137Z,88.00
2023-04-22T04:22:01.939Z,88.10
2023-04-22T04:24:36.658Z,88.20
2023-04-22T04:27:12.518Z,88.20
2023-04-22T04:29:49.795Z,88.40
2023-04-22T04:32:27.089Z,88.40
2023-04-22T04:34:58.058Z,88.40
2023-04-22T04:37:27.186Z,88.60
2023-04-22T04:40:02.821Z,88.70
2023-04-22T04:42:43.877Z,88.60
2023-04-22T04:45:20.489Z,88.80
2023-04-22T04:47:50.646Z,88.80
2023-04-22T04:50:24.570Z,88.80
2023-04-22T04:52:52.970Z,88.50
2023-04-22T04:55:27.557Z,88.70
2023-04-22T04:57:56.389Z,88.50
2023-04-22T05:00:26.026Z,88.60
2023-04-22T05:02:54.954Z,88.70
2023-04-22T05:05:23.315Z,88.60
2023-04-22T05:07:51.803Z,88.60
2023-04-22T05:10:20.544Z,88.40
2023-04-22T05:12:48.954Z,88.10
2023-04-22T05:15:22.287Z,87.60
2023-04-22T05:17:52.098Z,87.40
2023-04-22T05:20:20.516Z,86.90
2023-04-22T05:22:49.161Z,86.50
2023-04-22T05:25:18.054Z,86.40
2023-04-22T05:27:55.056Z,86.10
2023-04-22T05:30:25.114Z,85.80
2023-04-22T05:32:54.497Z,85.30
2023-04-22T05:35:22.897Z,84.70
2023-04-22T05:37:51.208Z,84.30
2023-04-22T05:40:19.401Z,84.10
2023-04-22T05:42:47.658Z,83.80
2023-04-22T05:45:15.921Z,83.60
2023-04-22T05:47:44.415Z,83.10
2023-04-22T05:50:13.956Z,82.90
2023-04-22T05:53:08.709Z,82.40
2023-04-22T05:55:36.689Z,82.10
2023-04-22T05:58:08.174Z,81.60
2023-04-22T06:00:55.868Z,81.20
2023-04-22T06:03:42.978Z,80.70
2023-04-22T06:06:14.573Z,80.60
2023-04-22T06:08:42.961Z,80.00
2023-04-22T06:11:12.017Z,80.00
2023-04-22T06:13:40.332Z,79.70
2023-04-22T06:16:09.996Z,79.80
2023-04-22T06:18:38.705Z,79.60
2023-04-22T06:21:11.020Z,79.30
2023-04-22T06:23:40.638Z,79.60
2023-04-22T06:26:09.030Z,78.90
2023-04-22T06:28:38.485Z,78.10
2023-04-22T06:31:11.839Z,76.60
2023-04-22T06:33:40.716Z,75.10
2023-04-22T06:36:09.500Z,73.90
2023-04-22T06:38:40.314Z,72.50
2023-04-22T06:41:41.950Z,72.80
2023-04-22T06:44:31.176Z,71.00
2023-04-22T06:47:24.109Z,69.70
2023-04-22T06:50:10.263Z,69.00
2023-04-22T06:52:46.613Z,68.00
2023-04-22T06:55:16.397Z,66.40
2023-04-22T06:57:44.961Z,66.20
2023-04-22T07:00:13.898Z,65.40
2023-04-22T07:02:42.949Z,65.40
2023-04-22T07:05:11.324Z,65.80
2023-04-22T07:07:40.377Z,64.40
2023-04-22T07:10:11.696Z,63.50
2023-04-22T07:12:47.130Z,62.50
2023-04-22T07:15:15.415Z,62.30
2023-04-22T07:17:43.863Z,62.20
2023-04-22T07:20:12.544Z,63.00
2023-04-22T07:22:40.555Z,62.30
2023-04-22T07:25:09.225Z,61.80
2023-04-22T07:27:37.582Z,61.40
2023-04-22T07:30:08.815Z,61.20
2023-04-22T07:32:37.259Z,59.90
2023-04-22T07:35:05.489Z,59.00
2023-04-22T07:37:33.731Z,59.20
2023-04-22T07:40:01.948Z,59.60
2023-04-22T07:42:30.247Z,59.80
2023-04-22T07:44:58.516Z,59.60
2023-04-22T07:47:27.879Z,59.40
2023-04-22T07:49:55.927Z,59.30
2023-04-22T07:52:23.895Z,58.50
2023-04-22T07:54:52.205Z,58.30
2023-04-22T07:57:21.842Z,58.90
2023-04-22T07:59:50.215Z,59.20
2023-04-22T08:02:18.255Z,59.20
2023-04-22T08:04:47.981Z,59.40
2023-04-22T08:07:30.972Z,59.60
2023-04-22T08:10:00.915Z,59.70
2023-04-22T08:12:28.858Z,60.40
2023-04-22T08:14:58.094Z,59.30
2023-04-22T08:17:26.144Z,59.40
2023-04-22T08:19:55.990Z,58.90
2023-04-22T08:22:24.017Z,59.50
2023-04-22T08:24:52.875Z,59.90
2023-04-22T08:27:22.190Z,59.50
2023-04-22T08:29:50.523Z,59.00
2023-04-22T08:32:19.804Z,58.40
2023-04-22T08:37:20.064Z,57.70
2023-04-22T08:39:48.065Z,56.20
2023-04-22T08:42:16.980Z,57.30
2023-04-22T08:44:46.113Z,57.70
2023-04-22T08:47:15.135Z,57.70
2023-04-22T08:49:43.961Z,57.90
2023-04-22T08:52:15.181Z,57.10
2023-04-22T08:54:44.585Z,57.10
2023-04-22T08:57:13.367Z,56.90
2023-04-22T08:59:42.518Z,56.10
2023-04-22T09:02:14.811Z,56.70
2023-04-22T09:04:43.711Z,56.00
2023-04-22T09:07:12.082Z,56.00
2023-04-22T09:09:40.512Z,55.90
2023-04-22T09:12:10.034Z,55.90
2023-04-22T09:14:38.254Z,55.70
2023-04-22T09:17:06.530Z,56.50
2023-04-22T09:19:34.967Z,55.70
2023-04-22T09:22:03.277Z,55.60
2023-04-22T09:24:31.657Z,55.20
2023-04-22T09:27:02.562Z,54.50
2023-04-22T09:29:32.127Z,55.10
2023-04-22T09:32:01.242Z,57.00
2023-04-22T09:34:29.265Z,56.40
2023-04-22T09:36:57.547Z,56.60
2023-04-22T09:39:25.832Z,56.40
2023-04-22T09:41:56.556Z,56.60
2023-04-22T09:44:28.434Z,57.30
2023-04-22T09:46:58.192Z,56.60
2023-04-22T09:49:28.233Z,56.40
2023-04-22T09:51:57.392Z,56.90
2023-04-22T09:54:25.394Z,56.40
2023-04-22T09:56:54.515Z,55.50
2023-04-22T09:59:23.034Z,56.70
2023-04-22T10:01:53.271Z,56.40
2023-04-22T10:04:23.452Z,55.90
2023-04-22T10:06:52.387Z,56.80
2023-04-22T10:09:21.395Z,57.30
2023-04-22T10:11:49.668Z,58.70
2023-04-22T10:14:18.051Z,58.60
2023-04-22T10:16:48.477Z,59.00
2023-04-22T10:19:18.460Z,59.00
2023-04-22T10:21:48.563Z,59.00
2023-04-22T10:24:18.113Z,59.00
2023-04-22T10:26:51.138Z,58.70
2023-04-22T10:29:20.244Z,59.10
2023-04-22T10:31:52.935Z,60.80
2023-04-22T10:34:21.308Z,59.90
2023-04-22T10:36:57.724Z,59.30
2023-04-22T10:39:26.749Z,59.80
2023-04-22T10:41:57.859Z,59.20
2023-04-22T10:44:29.152Z,58.90
2023-04-22T10:47:01.137Z,58.10
2023-04-22T10:49:33.026Z,56.70
2023-04-22T10:52:04.055Z,55.60
2023-04-22T10:54:51.277Z,55.60
2023-04-22T10:57:22.653Z,55.60
2023-04-22T10:59:53.212Z,55.10
2023-04-22T11:02:22.422Z,54.80
2023-04-22T11:04:52.192Z,56.40
2023-04-22T11:07:34.249Z,57.10
2023-04-22T11:10:05.342Z,56.80
2023-04-22T11:12:43.030Z,56.40
2023-04-22T11:15:12.121Z,55.70
2023-04-22T11:17:40.897Z,54.90
2023-04-22T11:20:09.849Z,54.60
2023-04-22T11:22:39.815Z,54.40
2023-04-22T11:25:10.065Z,54.50
2023-04-22T11:27:38.395Z,54.60
2023-04-22T11:30:08.663Z,56.60
2023-04-22T11:32:37.208Z,56.20
2023-04-22T11:35:06.754Z,53.20
2023-04-22T11:37:42.355Z,53.50
2023-04-22T11:40:25.399Z,51.70
2023-04-22T11:42:58.784Z,52.30
2023-04-22T11:45:27.279Z,51.60
2023-04-22T11:47:56.508Z,51.80
2023-04-22T11:50:26.722Z,52.30
2023-04-22T11:52:57.303Z,52.50
2023-04-22T11:55:27.277Z,53.30
2023-04-22T11:57:56.651Z,53.20
2023-04-22T12:00:25.815Z,52.40
2023-04-22T12:02:58.127Z,51.90
2023-04-22T12:05:36.817Z,52.20
2023-04-22T12:08:08.203Z,50.70
2023-04-22T12:10:40.727Z,51.00
2023-04-22T12:13:09.472Z,51.60
2023-04-22T12:15:43.682Z,51.60
2023-04-22T12:18:13.109Z,51.40
2023-04-22T12:20:42.902Z,52.30
2023-04-22T12:23:17.182Z,52.90
2023-04-22T12:25:45.622Z,52.20
2023-04-22T12:28:14.288Z,52.30
2023-04-22T12:30:42.670Z,51.30
2023-04-22T12:33:10.949Z,51.20
2023-04-22T12:35:39.278Z,52.40
2023-04-22T12:38:07.272Z,52.20
2023-04-22T12:40:36.975Z,51.10
2023-04-22T12:43:06.180Z,51.90
2023-04-22T12:45:35.703Z,49.70
2023-04-22T12:48:03.698Z,48.50
2023-04-22T12:50:31.938Z,48.40
2023-04-22T12:53:02.285Z,47.80
2023-04-22T12:55:31.252Z,47.80
2023-04-22T12:58:00.868Z,49.20
2023-04-22T13:00:31.285Z,48.70
2023-04-22T13:02:59.395Z,47.10
2023-04-22T13:05:27.862Z,47.20
2023-04-22T13:08:06.403Z,47.20
2023-04-22T13:10:35.514Z,46.40
2023-04-22T13:15:37.717Z,46.60
2023-04-22T13:18:06.181Z,45.70
2023-04-22T13:20:34.230Z,45.10
2023-04-22T13:23:04.905Z,46.30
2023-04-22T13:25:33.334Z,46.10
2023-04-22T13:28:01.691Z,45.60
2023-04-22T13:30:31.043Z,45.70
2023-04-22T13:32:59.542Z,46.10
2023-04-22T13:35:28.009Z,46.10
2023-04-22T13:37:56.395Z,46.70
2023-04-22T13:40:26.633Z,46.40
2023-04-22T13:42:54.895Z,45.50
2023-04-22T13:45:23.373Z,45.00
2023-04-22T13:47:54.404Z,45.30
2023-04-22T13:50:23.426Z,46.30
2023-04-22T13:52:52.028Z,45.20
2023-04-22T13:55:20.523Z,45.00
2023-04-22T13:57:49.522Z,45.80
2023-04-22T14:00:18.043Z,47.60
2023-04-22T14:02:46.616Z,47.60
2023-04-22T14:05:16.062Z,49.60
2023-04-22T14:07:44.397Z,49.20
2023-04-22T14:10:13.825Z,49.80
2023-04-22T14:12:42.219Z,49.70
2023-04-22T14:15:11.591Z,50.70
2023-04-22T14:17:40.246Z,50.90
2023-04-22T14:20:11.127Z,50.80
2023-04-22T14:22:40.871Z,50.80
2023-04-22T14:25:09.299Z,49.70
2023-04-22T14:27:37.769Z,49.30
2023-04-22T14:30:06.341Z,49.00
2023-04-22T14:32:35.147Z,49.30
2023-04-22T14:35:03.269Z,49.30
2023-04-22T14:37:32.192Z,49.20
2023-04-22T14:40:01.559Z,50.10
2023-04-22T14:42:29.857Z,50.20
2023-04-22T14:44:58.038Z,49.80
2023-04-22T14:47:26.361Z,49.80
2023-04-22T14:49:54.396Z,49.30
2023-04-22T14:52:22.589Z,48.40
2023-04-22T14:54:51.981Z,49.70
2023-04-22T14:57:21.841Z,49.90
2023-04-22T14:59:49.784Z,49.50
2023-04-22T15:02:18.492Z,50.80
2023-04-22T15:04:46.591Z,49.80
2023-04-22T15:07:15.016Z,50.20
2023-04-22T15:09:43.645Z,49.80
2023-04-22T15:12:11.846Z,51.20
2023-04-22T15:14:41.517Z,50.80
2023-04-22T15:17:09.837Z,50.80
2023-04-22T15:19:38.466Z,50.40
2023-04-22T15:22:06.890Z,50.20
2023-04-22T15:24:35.233Z,50.00
2023-04-22T15:27:03.994Z,50.80
2023-04-22T15:29:32.352Z,50.60
2023-04-22T15:32:02.320Z,50.40
2023-04-22T15:34:30.787Z,50.60
2023-04-22T15:36:59.002Z,50.80
2023-04-22T15:39:27.321Z,50.30
2023-04-22T15:41:55.778Z,50.10
2023-04-22T15:44:24.165Z,50.10
2023-04-22T15:46:53.036Z,50.30
2023-04-22T15:49:22.703Z,50.70
2023-04-22T15:51:51.470Z,51.70
2023-04-22T15:54:19.841Z,51.50
2023-04-22T15:56:48.236Z,51.10
2023-04-22T15:59:16.696Z,51.10
2023-04-22T16:01:46.267Z,52.60
2023-04-22T16:04:15.183Z,52.30
2023-04-22T16:06:44.951Z,51.90
2023-04-22T16:09:13.368Z,52.30
2023-04-22T16:11:41.805Z,52.30
2023-04-22T16:14:11.191Z,52.20
2023-04-22T16:16:40.408Z,52.00
2023-04-22T16:19:08.852Z,52.80
2023-04-22T16:21:37.222Z,53.80
2023-04-22T16:24:07.012Z,53.30
2023-04-22T16:26:34.977Z,53.10
2023-04-22T16:29:03.369Z,53.00
2023-04-22T16:31:31.363Z,52.80
2023-04-22T16:34:00.064Z,52.70
2023-04-22T16:36:28.043Z,53.10
2023-04-22T16:38:56.409Z,53.50
2023-04-22T16:41:25.721Z,53.80
2023-04-22T16:43:54.142Z,53.50
2023-04-22T16:46:22.166Z,53.50
2023-04-22T16:48:50.709Z,54.10
2023-04-22T16:51:18.675Z,54.00
2023-04-22T16:53:47.092Z,53.90
2023-04-22T16:56:15.352Z,54.50
2023-04-22T16:58:45.016Z,54.50
2023-04-22T17:01:13.765Z,54.20
2023-04-22T17:03:42.387Z,54.40
2023-04-22T17:06:10.906Z,55.30
2023-04-22T17:08:39.269Z,55.40
2023-04-22T17:11:07.547Z,54.90
2023-04-22T17:13:35.921Z,55.20
2023-04-22T17:16:06.514Z,56.10
2023-04-22T17:18:34.593Z,56.20
2023-04-22T17:21:03.246Z,55.90
2023-04-22T17:23:31.245Z,55.90
2023-04-22T17:25:59.959Z,56.40
2023-04-22T17:28:28.385Z,56.20
2023-04-22T17:30:56.901Z,56.40
2023-04-22T17:33:26.913Z,56.20
2023-04-22T17:35:55.179Z,56.50
2023-04-22T17:38:23.185Z,57.20
2023-04-22T17:40:51.659Z,56.70
2023-04-22T17:43:19.616Z,56.60
2023-04-22T17:45:47.907Z,56.80
2023-04-22T17:48:15.830Z,56.90
2023-04-22T17:50:45.439Z,57.00
2023-04-22T17:53:13.751Z,57.30
2023-04-22T17:55:42.114Z,58.10
2023-04-22T17:58:10.059Z,57.80
2023-04-22T18:00:38.735Z,57.90
2023-04-22T18:03:07.001Z,58.50
2023-04-22T18:05:35.606Z,59.00
2023-04-22T18:08:05.436Z,59.30
2023-04-22T18:10:33.903Z,59.30
2023-04-22T18:13:02.221Z,59.10
2023-04-22T18:15:30.165Z,59.40
2023-04-22T18:17:58.131Z,59.30
2023-04-22T18:20:26.377Z,59.60
2023-04-22T18:22:56.337Z,60.00
2023-04-22T18:25:26.235Z,60.00
2023-04-22T18:27:55.320Z,60.30
2023-04-22T18:30:24.035Z,60.30
2023-04-22T18:32:52.223Z,60.70
2023-04-22T18:35:20.776Z,60.50
2023-04-22T18:37:49.081Z,60.60
2023-04-22T18:40:18.298Z,60.70
2023-04-22T18:42:47.820Z,60.70
2023-04-22T18:45:16.814Z,60.90
2023-04-22T18:47:46.914Z,61.20
2023-04-22T18:50:15.343Z,61.50
2023-04-22T18:52:43.885Z,61.60
2023-04-22T18:55:12.167Z,61.50
2023-04-22T18:57:41.477Z,61.60
2023-04-22T19:00:13.066Z,61.90
2023-04-22T19:02:45.698Z,62.40
2023-04-22T19:05:14.703Z,62.50
2023-04-22T19:07:44.975Z,62.60
2023-04-22T19:10:13.773Z,62.80
2023-04-22T19:12:41.787Z,63.30
2023-04-22T19:15:11.754Z,63.50
2023-04-22T19:17:40.643Z,63.50
2023-04-22T19:20:09.521Z,63.60
2023-04-22T19:22:37.489Z,64.00
2023-04-22T19:25:06.466Z,64.00
2023-04-22T19:27:34.812Z,64.20
2023-04-22T19:30:03.710Z,64.40
2023-04-22T19:32:33.580Z,64.60
2023-04-22T19:35:04.045Z,64.70
2023-04-22T19:37:34.055Z,64.90
2023-04-22T19:40:02.040Z,64.80
2023-04-22T19:42:30.564Z,65.00
2023-04-22T19:44:59.473Z,65.90
2023-04-22T19:47:27.938Z,65.30
2023-04-22T19:49:58.336Z,65.30
2023-04-22T19:52:27.092Z,65.50
2023-04-22T19:54:58.808Z,65.60
2023-04-22T19:57:27.221Z,65.50
2023-04-22T19:59:55.314Z,65.40
2023-04-22T20:02:24.173Z,65.40
2023-04-22T20:04:52.835Z,65.40
2023-04-22T20:07:22.750Z,65.40
2023-04-22T20:09:51.892Z,65.40
2023-04-22T20:12:20.395Z,65.40
2023-04-22T20:14:48.870Z,65.40
2023-04-22T20:17:17.294Z,65.40
2023-04-22T20:19:45.595Z,65.20
2023-04-22T20:22:16.001Z,65.50
2023-04-22T20:24:45.695Z,65.10
2023-04-22T20:27:14.452Z,65.00
2023-04-22T20:29:43.243Z,64.70
2023-04-22T20:32:12.024Z,64.40
2023-04-22T20:34:40.482Z,63.90
2023-04-22T20:37:12.604Z,63.80
2023-04-22T20:39:41.121Z,63.30
2023-04-22T20:42:12.194Z,63.40
2023-04-22T20:44:40.563Z,63.30
2023-04-22T20:47:09.016Z,63.20
2023-04-22T20:49:40.363Z,63.20
2023-04-22T20:52:09.213Z,62.90
2023-04-22T20:54:37.558Z,62.80
2023-04-22T20:57:06.502Z,62.70
2023-04-22T20:59:36.776Z,62.60
2023-04-22T21:02:06.741Z,62.60
2023-04-22T21:04:35.636Z,62.50
2023-04-22T21:07:07.187Z,62.30
2023-04-22T21:09:35.640Z,62.40
2023-04-22T21:12:04.179Z,62.20
2023-04-22T21:14:32.650Z,62.40
2023-04-22T21:17:04.901Z,62.60
2023-04-22T21:19:34.037Z,62.90
2023-04-22T21:22:05.005Z,63.20
2023-04-22T21:24:35.020Z,63.50
2023-04-22T21:27:03.717Z,63.80
2023-04-22T21:29:32.596Z,64.10
2023-04-22T21:32:09.363Z,64.20
2023-04-22T21:34:38.372Z,64.30
2023-04-22T21:37:07.758Z,64.50
2023-04-22T21:39:36.477Z,64.70
2023-04-22T21:42:08.680Z,64.70
2023-04-22T21:44:38.242Z,64.90
2023-04-22T21:47:08.153Z,65.10
2023-04-22T21:49:36.069Z,65.10
2023-04-22T21:52:04.405Z,65.30
2023-04-22T21:54:32.422Z,65.40
2023-04-22T21:57:01.189Z,65.40
2023-04-22T21:59:29.444Z,65.50
2023-04-22T22:01:57.928Z,65.40
2023-04-22T22:04:27.729Z,65.60
2023-04-22T22:06:56.062Z,65.70
2023-04-22T22:09:24.325Z,65.70
2023-04-22T22:11:52.554Z,65.60
2023-04-22T22:14:20.798Z,65.70
2023-04-22T22:16:49.949Z,65.70
2023-04-22T22:19:18.355Z,65.80
2023-04-22T22:21:48.138Z,65.60
2023-04-22T22:24:16.586Z,65.60
2023-04-22T22:26:45.304Z,65.70
2023-04-22T22:29:15.649Z,65.80
2023-04-22T22:31:44.020Z,65.80
2023-04-22T22:34:12.401Z,66.00
2023-04-22T22:36:40.375Z,66.20
2023-04-22T22:39:12.345Z,66.20
2023-04-22T22:41:42.399Z,66.20
2023-04-22T22:44:12.777Z,66.40
2023-04-22T22:46:41.430Z,66.80
2023-04-22T22:49:10.355Z,67.20
2023-04-22T22:51:38.809Z,67.40
2023-04-22T22:54:07.473Z,67.60
2023-04-22T22:56:37.295Z,69.60
2023-04-22T22:59:05.758Z,71.70
2023-04-22T23:01:34.323Z,72.20
2023-04-22T23:04:02.949Z,72.00
2023-04-22T23:06:31.978Z,72.00
2023-04-22T23:09:00.330Z,71.90
2023-04-22T23:11:28.446Z,71.70
2023-04-22T23:13:58.193Z,71.80
2023-04-22T23:16:27.059Z,71.60
2023-04-22T23:18:56.721Z,71.60
2023-04-22T23:21:25.245Z,71.80
2023-04-22T23:23:53.831Z,71.90
2023-04-22T23:26:22.442Z,72.10
2023-04-22T23:28:51.060Z,72.10
2023-04-22T23:31:24.176Z,72.10
2023-04-22T23:33:53.044Z,72.10
2023-04-22T23:36:22.601Z,72.10
2023-04-22T23:38:50.608Z,72.20
2023-04-22T23:41:19.927Z,72.30
2023-04-22T23:43:48.517Z,72.30
2023-04-22T23:46:18.769Z,72.30
2023-04-22T23:48:48.516Z,72.40
2023-04-22T23:51:17.314Z,72.40
2023-04-22T23:53:45.684Z,72.40
2023-04-22T23:56:14.518Z,72.40
2023-04-22T23:58:42.833Z,72.50
